Time;durP1;ratioP1;P1;durP2;ratioP2;P2;SDS_P1;SDS_P2;PMS_P1;PMS_P2;Temp;Humidity;BMP_temperature;BMP_pressure;BME280_temperature;BME280_humidity;BME280_pressure;Samples;Min_cycle;Max_cycle;Signal;HPM_P1;HPM_P2
2023/03/27 05:01:06;;;;;;;;;0.33;0.33;;;;;11.43;54.14;39620.63;5655518;23;46060;-83
2023/03/27 05:03:33;;;;;;;;;0.33;0.00;;;;;11.52;54.04;39713.72;5010099;28;45493;-83
2023/03/27 05:05:59;;;;;;;;;0.00;0.00;;;;;10.48;53.85;39804.59;5016452;28;45308;-83
2023/03/27 05:08:24;;;;;;;;;0.00;0.00;;;;;11.36;54.11;39802.25;5016683;28;46110;-83
2023/03/27 05:10:49;;;;;;;;;0.00;0.00;;;;;10.53;53.99;39768.41;5014899;28;45573;-83
2023/03/27 05:13:15;;;;;;;;;0.00;0.00;;;;;11.35;53.95;39691.16;5012663;28;45500;-84
2023/03/27 05:15:41;;;;;;;;;0.00;0.00;;;;;11.47;53.87;39710.19;5012228;28;45576;-84
2023/03/27 05:18:07;;;;;;;;;0.00;0.00;;;;;11.48;53.95;39618.53;5015354;28;46170;-84
2023/03/27 05:20:33;;;;;;;;;0.00;0.00;;;;;11.47;54.10;39470.63;5015866;28;45245;-84
2023/03/27 05:22:58;;;;;;;;;0.00;0.00;;;;;11.07;54.03;39779.75;5015087;28;45386;-83
2023/03/27 05:25:24;;;;;;;;;2.00;0.00;;;;;11.38;53.97;39582.91;5015347;28;46651;-84
2023/03/27 05:27:51;;;;;;;;;0.00;0.00;;;;;11.31;54.04;39777.69;5015953;28;46305;-84
2023/03/27 05:30:21;;;;;;;;;0.00;0.00;;;;;11.48;53.99;39497.97;5012755;28;45429;-84
2023/03/27 05:32:50;;;;;;;;;0.00;0.00;;;;;10.12;54.42;39656.09;5012360;28;45418;-84
2023/03/27 05:35:20;;;;;;;;;0.00;0.00;;;;;11.32;53.90;39636.84;5012167;28;45529;-84
2023/03/27 05:37:47;;;;;;;;;1.67;1.67;;;;;11.44;54.20;39384.44;5015301;28;46454;-84
2023/03/27 05:40:15;;;;;;;;;0.67;0.67;;;;;11.43;53.98;39683.34;5015774;28;45584;-84
2023/03/27 05:42:43;;;;;;;;;3.00;3.00;;;;;11.42;54.32;39454.34;5015336;28;45356;-84
2023/03/27 05:45:18;;;;;;;;;3.67;3.67;;;;;11.26;54.13;39390.53;5015337;28;45561;-84
2023/03/27 05:47:47;;;;;;;;;5.33;4.00;;;;;11.40;54.49;39255.81;5009230;28;46328;-85
2023/03/27 05:50:13;;;;;;;;;10.00;8.67;;;;;11.11;54.37;39236.22;5013751;28;45474;-86
2023/03/27 05:52:40;;;;;;;;;33.67;25.33;;;;;11.39;54.35;39102.72;5015653;28;45397;-85
2023/03/27 05:55:06;;;;;;;;;13.67;13.67;;;;;11.16;54.38;38953.41;4997536;28;45401;-85
2023/03/27 05:57:32;;;;;;;;;4.00;3.67;;;;;11.39;54.48;38766.38;4997469;28;45742;-85
2023/03/27 05:59:59;;;;;;;;;11.33;6.67;;;;;11.31;54.42;38842.28;5000842;28;45509;-85
2023/03/27 06:02:24;;;;;;;;;3.67;3.00;;;;;11.04;54.18;38711.00;5018306;28;45478;-84
2023/03/27 06:04:50;;;;;;;;;0.33;0.33;;;;;11.02;54.46;38691.22;5016158;28;45387;-86
2023/03/27 06:07:16;;;;;;;;;1.00;1.00;;;;;10.59;54.61;38050.84;5015881;28;46305;-87
2023/03/27 06:09:41;;;;;;;;;1.00;1.00;;;;;10.99;54.57;38566.09;5016083;28;45495;-85
2023/03/27 06:12:06;;;;;;;;;1.00;1.00;;;;;11.42;54.51;38009.16;5016810;28;45451;-86
2023/03/27 06:14:32;;;;;;;;;2.33;2.33;;;;;10.81;54.79;38254.78;5019193;28;45432;-85
2023/03/27 06:17:00;;;;;;;;;1.00;1.00;;;;;10.80;54.73;38067.78;5018303;28;47321;-87
2023/03/27 06:19:26;;;;;;;;;0.33;0.33;;;;;10.58;54.77;37932.44;5016087;28;45475;-88
2023/03/27 06:21:51;;;;;;;;;2.00;2.00;;;;;10.38;54.34;36956.81;5012248;28;45784;-84
2023/03/27 06:24:16;;;;;;;;;1.00;1.00;;;;;11.51;54.31;37999.16;5016980;28;45506;-84
2023/03/27 06:26:42;;;;;;;;;0.00;0.00;;;;;11.27;54.40;37828.56;5014141;28;46548;-83
2023/03/27 06:29:07;;;;;;;;;2.00;0.00;;;;;11.29;54.21;36853.00;5015044;28;45458;-83
2023/03/27 06:31:32;;;;;;;;;1.00;0.00;;;;;11.70;54.07;36960.91;5014672;28;45499;-84
2023/03/27 06:33:58;;;;;;;;;0.00;0.00;;;;;11.50;54.53;37326.25;5003977;28;45904;-83
2023/03/27 06:36:23;;;;;;;;;0.00;0.00;;;;;11.49;54.73;37073.41;5013144;28;45636;-83
2023/03/27 06:38:49;;;;;;;;;0.00;0.00;;;;;11.49;54.83;36920.72;5015689;28;45408;-86
2023/03/27 06:41:14;;;;;;;;;0.00;0.00;;;;;10.74;54.59;37038.03;5017053;28;45531;-86
2023/03/27 06:43:40;;;;;;;;;0.00;0.00;;;;;11.20;54.95;36721.03;5009935;28;45531;-86
2023/03/27 06:46:05;;;;;;;;;0.00;0.00;;;;;11.49;54.93;36104.22;4998192;28;46714;-83
2023/03/27 06:48:31;;;;;;;;;0.00;0.00;;;;;11.51;54.75;36110.78;5017819;28;45288;-81
2023/03/27 06:50:56;;;;;;;;;0.00;0.00;;;;;11.36;55.10;35878.22;5016931;28;45368;-82
2023/03/27 06:53:22;;;;;;;;;0.00;0.00;;;;;11.54;55.10;35710.59;5017383;28;45289;-82
2023/03/27 06:55:48;;;;;;;;;0.00;0.00;;;;;11.56;54.93;35556.94;5016783;28;46154;-82
2023/03/27 06:58:17;;;;;;;;;1.00;0.00;;;;;11.57;55.05;35156.13;5017786;28;45320;-83
2023/03/27 07:00:44;;;;;;;;;1.67;1.67;;;;;11.36;54.59;35148.41;5012441;28;45460;-83
2023/03/27 07:03:10;;;;;;;;;1.00;1.00;;;;;11.57;54.81;34672.69;4995937;28;45487;-84
2023/03/27 07:05:37;;;;;;;;;0.67;0.67;;;;;11.82;54.72;33907.94;4979996;28;47831;-83
2023/03/27 07:08:05;;;;;;;;;0.00;0.00;;;;;11.92;54.52;33813.97;4996321;28;45804;-83
2023/03/27 07:10:31;;;;;;;;;0.00;0.00;;;;;11.49;54.62;34639.09;4998121;28;45368;-83
2023/03/27 07:12:56;;;;;;;;;0.00;0.00;;;;;11.74;55.04;34121.00;4998889;28;45424;-83
2023/03/27 07:15:23;;;;;;;;;14.67;14.33;;;;;11.49;54.78;34095.75;4998466;28;45440;-84
2023/03/27 07:18:09;;;;;;;;;4.67;4.00;;;;;11.75;54.91;33845.91;4997304;28;45882;-85
2023/03/27 07:20:35;;;;;;;;;1.00;1.00;;;;;11.76;55.02;33678.78;4987559;28;46090;-84
2023/03/27 07:23:01;;;;;;;;;0.00;0.00;;;;;11.51;55.09;33317.16;4985025;28;45411;-83
2023/03/27 07:25:31;;;;;;;;;3.00;0.33;;;;;11.80;55.10;33134.78;4998205;28;46179;-83
2023/03/27 07:28:00;;;;;;;;;2.00;0.00;;;;;11.84;55.01;32798.47;4998392;28;45268;-83
2023/03/27 07:30:26;;;;;;;;;0.00;0.00;;;;;11.87;54.80;32532.16;4998157;28;45321;-82
2023/03/27 07:32:51;;;;;;;;;1.00;1.00;;;;;11.67;54.64;32756.91;4998627;28;45366;-83
2023/03/27 07:35:18;;;;;;;;;1.00;1.00;;;;;11.57;55.05;32851.28;4997799;28;45434;-83
2023/03/27 07:37:43;;;;;;;;;1.67;0.33;;;;;11.46;54.75;32734.56;4998164;28;45581;-83
2023/03/27 07:40:13;;;;;;;;;0.00;0.00;;;;;11.86;54.73;32815.13;4998328;28;45270;-82
2023/03/27 07:42:44;;;;;;;;;2.00;0.67;;;;;11.67;54.99;32525.94;4998476;28;45373;-83
2023/03/27 07:45:11;;;;;;;;;0.00;0.00;;;;;12.11;54.66;31564.16;4998001;28;47052;-82
2023/03/27 07:47:38;;;;;;;;;0.00;0.00;;;;;11.28;54.25;33049.44;4997843;28;45343;-83
2023/03/27 07:50:03;;;;;;;;;0.00;0.00;;;;;11.76;54.58;32959.13;4997826;28;45368;-84
2023/03/27 07:52:29;;;;;;;;;2.00;0.00;;;;;11.54;54.34;32734.03;4980625;28;45539;-84
2023/03/27 07:54:55;;;;;;;;;1.00;1.00;;;;;11.90;53.61;34290.78;4980131;28;46978;-84
2023/03/27 07:57:21;;;;;;;;;0.00;0.00;;;;;12.08;53.77;33823.44;4997847;28;45415;-84
2023/03/27 07:59:46;;;;;;;;;0.00;0.00;;;;;11.89;52.59;38300.72;4998096;28;45404;-84
2023/03/27 08:02:12;;;;;;;;;1.00;1.00;;;;;12.04;52.38;38413.59;4997376;28;45656;-83
2023/03/27 08:04:38;;;;;;;;;1.00;1.00;;;;;12.19;52.42;38020.72;4997277;28;46295;-84
2023/03/27 08:07:04;;;;;;;;;0.00;0.00;;;;;12.20;52.64;37810.97;4997785;28;45294;-83
2023/03/27 08:09:29;;;;;;;;;0.00;0.00;;;;;12.10;52.44;37977.78;4997779;28;45302;-84
2023/03/27 08:11:54;;;;;;;;;0.00;0.00;;;;;12.22;53.07;37131.13;4980398;28;45362;-84
2023/03/27 08:14:20;;;;;;;;;1.67;0.00;;;;;11.41;52.07;38789.13;4997477;28;46882;-84
2023/03/27 08:16:45;;;;;;;;;0.00;0.00;;;;;12.20;52.25;37948.09;4997765;28;45290;-84
2023/03/27 08:19:10;;;;;;;;;0.00;0.00;;;;;12.34;52.66;37446.53;4979275;28;45427;-85
2023/03/27 08:21:36;;;;;;;;;0.00;0.00;;;;;12.31;52.65;37292.28;4997638;28;45318;-84
2023/03/27 08:24:03;;;;;;;;;0.00;0.00;;;;;12.40;51.97;38182.00;4997235;28;45501;-84
2023/03/27 08:26:30;;;;;;;;;0.00;0.00;;;;;12.45;52.36;37132.94;4997428;28;45508;-84
2023/03/27 08:28:55;;;;;;;;;0.00;0.00;;;;;12.14;52.01;37423.28;4980198;28;45453;-83
2023/03/27 08:31:21;;;;;;;;;0.00;0.00;;;;;12.59;51.62;38402.94;4997708;28;45434;-83
2023/03/27 08:33:46;;;;;;;;;0.00;0.00;;;;;11.98;51.88;36886.78;4996921;28;46085;-84
2023/03/27 08:36:13;;;;;;;;;0.00;0.00;;;;;12.72;51.50;37416.06;4997627;28;45347;-85
2023/03/27 08:38:41;;;;;;;;;0.00;0.00;;;;;12.57;51.07;38343.66;4997486;28;45445;-83
2023/03/27 08:41:23;;;;;;;;;24.33;23.00;;;;;12.85;51.56;37603.81;4997324;28;45285;-84
2023/03/27 08:43:49;;;;;;;;;1.67;1.67;;;;;12.84;51.57;37913.81;4996927;28;47377;-84
2023/03/27 08:46:24;;;;;;;;;2.33;0.00;;;;;12.83;51.57;38060.94;4997149;28;45317;-84
2023/03/27 08:48:56;;;;;;;;;0.00;0.00;;;;;12.89;51.40;38391.22;4997113;28;45352;-84
2023/03/27 08:51:41;;;;;;;;;0.00;0.00;;;;;12.54;51.07;38659.75;4997497;28;45360;-84
2023/03/27 08:54:15;;;;;;;;;0.00;0.00;;;;;12.58;51.10;39336.81;4997159;28;45437;-84
2023/03/27 08:56:41;;;;;;;;;0.00;0.00;;;;;12.81;50.92;39613.03;4997292;28;45451;-84
2023/03/27 08:59:16;;;;;;;;;0.00;0.00;;;;;12.89;51.14;39347.34;4997185;28;45406;-84
2023/03/27 09:02:09;;;;;;;;;0.00;0.00;;;;;12.88;50.99;40097.44;4997132;28;45396;-84
2023/03/27 09:04:47;;;;;;;;;0.00;0.00;;;;;12.85;50.60;40930.91;4996566;28;47108;-83
2023/03/27 09:07:47;;;;;;;;;2.33;0.00;;;;;12.86;50.63;41366.47;4996606;28;45289;-84
2023/03/27 09:10:29;;;;;;;;;0.00;0.00;;;;;12.22;50.33;41378.09;4996887;28;45397;-84
2023/03/27 09:13:28;;;;;;;;;0.00;0.00;;;;;13.04;49.82;42454.69;4997481;28;45341;-84
2023/03/27 09:16:02;;;;;;;;;0.00;0.00;;;;;12.74;50.39;40896.56;4996958;28;46379;-84
2023/03/27 09:18:33;;;;;;;;;0.00;0.00;;;;;13.25;50.17;41597.09;4978365;28;46014;-84
2023/03/27 09:21:08;;;;;;;;;0.00;0.00;;;;;13.03;50.26;40919.56;4996909;28;45365;-85
2023/03/27 09:23:41;;;;;;;;;0.00;0.00;;;;;13.37;50.34;40112.94;4996895;28;45537;-84
2023/03/27 09:26:13;;;;;;;;;0.00;0.00;;;;;13.37;50.07;40429.34;4996701;28;46151;-85
2023/03/27 09:28:57;;;;;;;;;0.33;0.00;;;;;13.25;50.04;41138.63;4996872;28;45428;-85
2023/03/27 09:31:49;;;;;;;;;0.00;0.00;;;;;12.70;49.44;42258.53;4997431;28;45345;-85
2023/03/27 09:34:23;;;;;;;;;0.00;0.00;;;;;13.26;48.84;43576.69;5000107;28;45349;-85
2023/03/27 09:36:49;;;;;;;;;0.00;0.00;;;;;13.13;48.95;43479.59;4999915;28;46488;-85
2023/03/27 09:39:27;;;;;;;;;0.00;0.00;;;;;13.54;48.97;42699.75;4999705;28;45321;-85
2023/03/27 09:41:57;;;;;;;;;0.00;0.00;;;;;13.72;47.95;46139.34;4982244;28;45477;-85
2023/03/27 09:44:27;;;;;;;;;0.00;0.00;;;;;13.76;48.35;44947.56;5000124;28;45503;-85
2023/03/27 09:47:11;;;;;;;;;0.00;0.00;;;;;13.90;47.10;48606.69;4999468;28;45541;-84
2023/03/27 09:49:43;;;;;;;;;0.00;0.00;;;;;13.77;46.39;49365.53;4997790;28;45359;-85
2023/03/27 09:52:38;;;;;;;;;0.00;0.00;;;;;14.10;46.47;48689.94;4999565;28;45413;-84
2023/03/27 09:55:23;;;;;;;;;0.00;0.00;;;;;14.52;47.05;46901.41;4999911;28;45352;-84
2023/03/27 09:57:57;;;;;;;;;0.00;0.00;;;;;15.01;45.83;47139.31;4999616;28;46540;-86
2023/03/27 10:01:05;;;;;;;;;7.33;7.33;;;;;15.78;45.34;44779.09;4998690;28;45401;-87
2023/03/27 10:03:40;;;;;;;;;0.00;0.00;;;;;16.27;42.79;49874.97;4962348;28;45413;-85
2023/03/27 10:06:13;;;;;;;;;0.00;0.00;;;;;17.44;43.83;46262.75;4980492;28;45313;-86
2023/03/27 10:08:46;;;;;;;;;0.00;0.00;;;;;17.53;42.33;47678.94;4980042;28;45368;-86
2023/03/27 10:11:27;;;;;;;;;0.00;0.00;;;;;18.62;40.07;51360.72;4979492;28;45468;-86
2023/03/27 10:13:53;;;;;;;;;0.00;0.00;;;;;18.24;40.60;54220.47;4979795;28;45503;-86
2023/03/27 10:18:59;;;;;;;;;0.00;0.00;;;;;18.22;39.62;57436.06;5003468;23;73944;-85
2023/03/27 10:21:32;;;;;;;;;0.00;0.00;;;;;17.93;40.41;57356.88;4999248;28;45429;-84
2023/03/27 10:24:01;;;;;;;;;0.00;0.00;;;;;18.86;40.25;57754.53;4998430;28;45292;-85
2023/03/27 10:26:30;;;;;;;;;0.67;0.00;;;;;19.58;40.10;56994.00;4999294;28;45488;-85
2023/03/27 10:29:19;;;;;;;;;0.33;0.33;;;;;19.10;38.64;60029.38;4999083;28;46397;-85
2023/03/27 10:31:51;;;;;;;;;2.00;1.00;;;;;20.15;37.98;61133.44;4998792;28;45489;-85
2023/03/27 10:34:42;;;;;;;;;0.00;0.00;;;;;20.73;36.29;62628.03;4999170;28;45347;-85
2023/03/27 10:37:20;;;;;;;;;0.00;0.00;;;;;21.35;37.35;62175.78;4999724;28;45472;-85
2023/03/27 10:39:46;;;;;;;;;0.00;0.00;;;;;21.82;35.61;63612.31;4999117;28;46514;-85
2023/03/27 10:42:13;;;;;;;;;0.00;0.00;;;;;22.79;34.84;64233.25;4998537;28;45294;-86
2023/03/27 10:44:39;;;;;;;;;0.00;0.00;;;;;23.24;34.83;64990.91;4998823;28;45338;-85
2023/03/27 10:47:17;;;;;;;;;1.00;0.00;;;;;24.05;33.63;66056.63;4999524;28;45315;-85
2023/03/27 10:49:44;;;;;;;;;0.00;0.00;;;;;24.53;33.33;66777.50;4999013;28;45458;-85
2023/03/27 10:52:24;;;;;;;;;0.00;0.00;;;;;24.90;32.33;67348.84;4999115;28;45412;-85
2023/03/27 10:54:58;;;;;;;;;0.00;0.00;;;;;25.31;32.53;67727.47;4999650;28;45272;-88
2023/03/27 10:57:30;;;;;;;;;0.00;0.00;;;;;25.30;31.54;68195.06;4998528;28;45788;-88
2023/03/27 11:00:21;;;;;;;;;0.00;0.00;;;;;24.70;30.15;68467.25;4983554;28;46286;-85
2023/03/27 11:03:19;;;;;;;;;0.00;0.00;;;;;25.28;29.33;68639.28;4991160;28;45511;-90
2023/03/27 11:05:47;;;;;;;;;0.00;0.00;;;;;25.39;29.41;68787.03;4983595;28;45547;-86
2023/03/27 11:08:12;;;;;;;;;0.00;0.00;;;;;26.17;29.00;68977.75;4988835;28;45428;-86
2023/03/27 11:11:06;;;;;;;;;0.00;0.00;;;;;24.71;27.53;68884.28;4990990;28;46264;-91
2023/03/27 11:13:43;;;;;;;;;0.00;0.00;;;;;24.85;28.97;69020.44;4981763;28;45312;-90
2023/03/27 11:16:38;;;;;;;;;0.00;0.00;;;;;25.21;28.09;69056.56;4989528;28;45567;-89
2023/03/27 11:19:30;;;;;;;;;0.00;0.00;;;;;24.21;28.42;69059.84;4994917;28;45565;-89
2023/03/27 11:22:13;;;;;;;;;0.00;0.00;;;;;22.79;29.63;68986.59;4967385;28;48211;-89
2023/03/27 11:24:57;;;;;;;;;0.50;0.00;;;;;23.52;29.77;69111.41;4984940;28;45387;-89
2023/03/27 11:27:51;;;;;;;;;0.00;0.00;;;;;22.97;30.01;69102.38;4993696;28;45309;-89
2023/03/27 11:30:43;;;;;;;;;0.00;0.00;;;;;22.56;30.47;69065.03;4988247;28;45431;-85
2023/03/27 11:33:28;;;;;;;;;4.33;4.00;;;;;22.13;30.35;69101.28;4980924;28;46251;-87
2023/03/27 11:36:04;;;;;;;;;0.00;0.00;;;;;20.94;30.60;69091.81;4991247;28;45424;-85
2023/03/27 11:38:37;;;;;;;;;0.00;0.00;;;;;20.51;30.71;68999.41;4977796;28;45499;-84
2023/03/27 11:41:02;;;;;;;;;1.00;0.00;;;;;19.73;32.00;68997.00;4994095;28;45304;-85
2023/03/27 11:43:31;;;;;;;;;0.00;0.00;;;;;20.22;31.83;69003.69;4980427;28;45325;-85
2023/03/27 11:46:13;;;;;;;;;2.00;0.00;;;;;18.96;32.24;68969.41;4990647;28;45484;-84
2023/03/27 11:48:56;;;;;;;;;0.00;0.00;;;;;19.89;32.68;69020.81;4969911;28;45358;-84
2023/03/27 11:51:47;;;;;;;;;0.00;0.00;;;;;19.69;32.65;69016.38;4996460;28;45456;-85
2023/03/27 11:54:43;;;;;;;;;0.00;0.00;;;;;19.64;33.28;68983.59;4987233;28;45488;-84
2023/03/27 11:57:29;;;;;;;;;0.33;0.00;;;;;19.91;32.96;68977.59;4977545;28;45461;-84
2023/03/27 12:00:04;;;;;;;;;0.00;0.00;;;;;20.30;32.16;69042.19;4977853;28;45406;-85
2023/03/27 16:01:00;;;;;;;;;0.00;0.00;;;;;16.48;36.25;68678.41;5728102;22;45387;-88
2023/03/27 16:03:40;;;;;;;;;0.00;0.00;;;;;15.61;35.86;68738.00;5004248;28;45698;-88
2023/03/27 16:14:55;;;;;;;;;0.00;0.00;;;;;16.36;36.20;68646.06;5067307;22;44862;-96
2023/03/27 16:17:39;;;;;;;;;0.00;0.00;;;;;16.31;35.80;68646.06;5026830;28;45251;-96
2023/03/27 16:20:11;;;;;;;;;0.00;0.00;;;;;16.29;36.43;68627.09;4998959;28;48203;-96
2023/03/27 16:22:38;;;;;;;;;0.00;0.00;;;;;15.63;36.63;68565.03;5011497;28;44953;-96
2023/03/27 16:25:18;;;;;;;;;0.00;0.00;;;;;15.55;36.49;68488.34;5131163;22;45301;-90
2023/03/27 16:27:53;;;;;;;;;0.00;0.00;;;;;16.22;36.39;68547.31;5001301;28;45343;-88
2023/03/27 16:30:22;;;;;;;;;0.00;0.00;;;;;16.19;36.37;68651.06;5009649;22;46056;-90
2023/03/27 16:32:48;;;;;;;;;0.00;0.00;;;;;15.74;36.25;68632.94;4988368;28;45640;-90
2023/03/27 16:35:13;;;;;;;;;0.00;0.00;;;;;16.14;36.53;68639.22;5009051;28;45424;-89
2023/03/27 16:37:38;;;;;;;;;0.00;0.00;;;;;15.78;36.41;68621.66;4998040;28;45435;-90
2023/03/27 16:40:04;;;;;;;;;0.00;0.00;;;;;15.62;36.83;68547.28;4983683;28;46259;-90
2023/03/27 16:42:30;;;;;;;;;0.00;0.00;;;;;14.80;36.68;68486.44;4975331;28;45533;-89
2023/03/27 16:44:55;;;;;;;;;0.00;0.00;;;;;15.20;36.71;68528.56;5004268;28;45289;-88
2023/03/27 16:47:22;;;;;;;;;0.00;0.00;;;;;15.34;36.75;68563.22;4999116;28;45503;-89
2023/03/27 16:49:48;;;;;;;;;0.67;0.67;;;;;15.95;36.87;68643.94;4996070;28;45389;-88
2023/03/27 16:52:13;;;;;;;;;0.00;0.00;;;;;15.16;36.88;68491.84;5004873;28;45501;-86
2023/03/27 16:54:38;;;;;;;;;0.67;0.00;;;;;15.41;36.70;68544.88;4990135;28;45770;-89
2023/03/27 16:57:04;;;;;;;;;0.00;0.00;;;;;15.66;37.20;68546.09;5007398;28;45593;-89
2023/03/27 16:59:29;;;;;;;;;1.00;0.00;;;;;15.73;36.75;68563.03;5009559;28;45538;-89
2023/03/27 17:01:55;;;;;;;;;0.00;0.00;;;;;15.86;36.76;68641.84;4997451;28;45342;-88
2023/03/27 17:04:20;;;;;;;;;0.00;0.00;;;;;15.55;37.27;68574.22;4994576;28;45359;-89
2023/03/27 17:06:46;;;;;;;;;0.00;0.00;;;;;15.81;37.12;68623.16;4987903;28;45515;-91
2023/03/27 17:09:12;;;;;;;;;0.00;0.00;;;;;15.69;36.92;68632.31;4996456;28;45809;-89
2023/03/27 17:11:38;;;;;;;;;0.00;0.00;;;;;15.77;36.92;68602.41;4990090;28;45511;-89
2023/03/27 17:14:04;;;;;;;;;0.00;0.00;;;;;15.24;37.33;68575.34;4975339;28;45623;-91
2023/03/27 17:16:29;;;;;;;;;0.00;0.00;;;;;15.57;37.22;68581.34;4995948;28;45440;-96
2023/03/27 17:18:56;;;;;;;;;0.00;0.00;;;;;15.66;37.12;68621.31;4978503;28;48310;-96
2023/03/27 17:21:23;;;;;;;;;0.00;0.00;;;;;15.60;37.19;68587.56;4997825;28;45454;-96
2023/03/27 17:23:58;;;;;;;;;0.00;0.00;;;;;15.59;37.17;68634.94;4996607;28;45414;-96
2023/03/27 17:26:26;;;;;;;;;0.00;0.00;;;;;15.38;37.38;68764.53;5000418;28;45329;-95
2023/03/27 17:28:52;;;;;;;;;0.00;0.00;;;;;15.36;37.38;68570.34;5002834;22;47060;-84
2023/03/27 17:31:17;;;;;;;;;1.00;0.00;;;;;15.43;37.44;68615.34;5008837;28;45403;-88
2023/03/27 17:33:43;;;;;;;;;0.00;0.00;;;;;15.38;37.42;68562.66;5010795;28;45393;-85
2023/03/27 17:36:10;;;;;;;;;0.00;0.00;;;;;15.32;37.53;68610.88;5004780;28;45692;-88
2023/03/27 17:38:39;;;;;;;;;0.00;0.00;;;;;15.27;37.70;68570.91;5010202;28;48332;-90
2023/03/27 17:41:05;;;;;;;;;0.00;0.00;;;;;15.21;37.77;68550.44;5008892;28;45438;-88
2023/03/27 17:43:31;;;;;;;;;0.00;0.00;;;;;14.85;37.47;68546.22;5014311;28;45368;-90
2023/03/27 17:46:09;;;;;;;;;0.00;0.00;;;;;14.22;37.67;68428.03;5012783;28;45663;-92
2023/03/27 17:48:35;;;;;;;;;0.00;0.00;;;;;14.90;38.03;68493.56;4995529;28;47575;-87
2023/03/27 17:51:01;;;;;;;;;0.00;0.00;;;;;14.38;38.11;68523.53;4983386;28;45455;-86
2023/03/27 17:53:28;;;;;;;;;0.00;0.00;;;;;14.31;37.89;68446.66;5007803;28;45733;-85
2023/03/27 17:55:54;;;;;;;;;0.00;0.00;;;;;14.00;38.01;68354.69;5014858;28;45598;-88
2023/03/27 17:58:21;;;;;;;;;0.00;0.00;;;;;14.95;37.91;68571.38;5004140;28;46741;-89
2023/03/27 18:03:23;;;;;;;;;0.00;0.00;;;;;13.04;37.92;68297.09;5034813;22;45005;-96
2023/03/27 18:06:08;;;;;;;;;0.00;0.00;;;;;14.29;38.18;68409.72;4984181;28;45445;-93
2023/03/27 18:08:34;;;;;;;;;0.33;0.00;;;;;14.25;38.31;68418.28;4956986;28;47211;-88
2023/03/27 18:11:00;;;;;;;;;0.00;0.00;;;;;13.84;38.51;68522.38;4977110;28;45504;-91
2023/03/27 18:13:41;;;;;;;;;0.00;0.00;;;;;14.31;38.60;68411.50;4972536;28;45714;-87
2023/03/27 18:16:09;;;;;;;;;0.00;0.00;;;;;14.00;38.18;68622.59;4978307;28;45583;-89
2023/03/27 18:18:37;;;;;;;;;0.00;0.00;;;;;13.46;38.31;68350.97;4982558;28;45521;-90
2023/03/27 18:21:06;;;;;;;;;2.00;0.00;;;;;13.14;38.72;68413.94;4980517;28;46579;-93
2023/03/27 18:23:38;;;;;;;;;0.00;0.00;;;;;12.91;38.45;68172.31;4972095;28;45426;-84
2023/03/27 18:26:07;;;;;;;;;0.00;0.00;;;;;13.59;38.19;68343.94;4973994;28;45532;-93
2023/03/27 18:28:35;;;;;;;;;0.00;0.00;;;;;13.97;38.43;68406.38;4972130;28;46603;-88
2023/03/27 18:31:09;;;;;;;;;0.00;0.00;;;;;14.47;38.38;68488.38;4968391;28;45294;-93
2023/03/27 18:34:20;;;;;;;;;0.00;0.00;;;;;12.92;38.82;68327.97;4961918;28;45553;-87
2023/03/27 18:36:49;;;;;;;;;1.00;1.00;;;;;12.88;38.30;68453.28;4890364;28;45557;-90
2023/03/27 18:39:21;;;;;;;;;0.00;0.00;;;;;14.47;38.44;68350.66;4899358;29;45716;-82
2023/03/27 18:41:46;;;;;;;;;0.00;0.00;;;;;14.29;38.56;68473.56;4879840;29;45772;-82
2023/03/27 18:44:12;;;;;;;;;0.00;0.00;;;;;14.44;38.80;68501.38;4898396;29;45446;-81
2023/03/27 18:46:38;;;;;;;;;0.00;0.00;;;;;14.00;38.94;68455.13;4899063;29;45519;-81
2023/03/27 18:49:04;;;;;;;;;0.67;0.67;;;;;14.41;39.00;68499.91;4888525;29;46269;-80
2023/03/27 18:51:32;;;;;;;;;1.00;1.00;;;;;14.40;39.16;68427.50;4898938;29;45497;-83
2023/03/27 18:53:58;;;;;;;;;0.00;0.00;;;;;13.93;38.79;68418.19;4899325;29;45447;-82
2023/03/27 18:56:24;;;;;;;;;1.00;1.00;;;;;14.36;38.88;68483.94;4898966;29;45601;-82
2023/03/27 18:58:49;;;;;;;;;0.00;0.00;;;;;14.19;38.85;68469.06;4898430;29;48115;-84
2023/03/27 19:01:15;;;;;;;;;0.00;0.00;;;;;14.07;39.33;68404.91;4897684;28;51026;-82
2023/03/27 19:03:41;;;;;;;;;0.33;0.33;;;;;14.23;39.06;68468.50;4894524;28;45665;-83
2023/03/27 19:06:10;;;;;;;;;2.00;1.00;;;;;14.24;39.07;68475.03;4897595;28;45658;-82
2023/03/27 19:08:36;;;;;;;;;0.00;0.00;;;;;14.21;39.40;68482.69;4896626;28;47248;-82
2023/03/27 19:11:24;;;;;;;;;1.00;1.00;;;;;13.56;39.31;68433.97;4894239;28;45578;-86
2023/03/27 19:13:49;;;;;;;;;0.00;0.00;;;;;12.52;39.43;68270.59;4935650;28;45679;-82
2023/03/27 19:16:14;;;;;;;;;0.00;0.00;;;;;13.47;39.32;68320.28;4975304;28;45467;-81
2023/03/27 19:18:40;;;;;;;;;0.00;0.00;;;;;14.02;39.44;68383.63;4964256;28;46211;-80
2023/03/27 19:21:05;;;;;;;;;1.00;1.00;;;;;14.09;39.58;68412.63;4955187;28;45602;-81
2023/03/27 19:23:30;;;;;;;;;1.00;1.00;;;;;14.07;39.24;68394.28;4958077;28;45505;-80
2023/03/27 19:26:08;;;;;;;;;0.00;0.00;;;;;14.06;39.57;68470.22;4973465;28;45437;-87
2023/03/27 19:28:34;;;;;;;;;0.67;0.67;;;;;13.83;39.77;68420.19;4965686;28;45435;-79
2023/03/27 19:31:04;;;;;;;;;0.00;0.00;;;;;14.05;39.54;68490.31;4963722;28;45401;-79
2023/03/27 19:33:30;;;;;;;;;0.00;0.00;;;;;13.83;39.79;68443.53;4975008;28;45452;-79
2023/03/27 19:35:55;;;;;;;;;0.67;0.33;;;;;14.02;39.56;68458.06;4967449;28;45552;-80
2023/03/27 19:38:24;;;;;;;;;1.00;1.00;;;;;13.70;40.03;68392.09;4974605;28;46155;-86
2023/03/27 19:40:49;;;;;;;;;1.00;1.00;;;;;13.98;39.66;68479.31;4969839;28;45480;-79
2023/03/27 19:43:16;;;;;;;;;1.67;1.00;;;;;13.95;39.91;68465.72;4974103;28;45366;-81
2023/03/27 19:45:51;;;;;;;;;0.33;0.00;;;;;13.44;39.93;68377.25;4973239;28;45608;-79
2023/03/27 19:48:23;;;;;;;;;0.00;0.00;;;;;13.92;40.27;68436.19;4974226;28;46345;-80
2023/03/27 19:50:49;;;;;;;;;0.00;0.00;;;;;13.91;39.80;68423.78;4975859;28;46437;-78
2023/03/27 19:53:15;;;;;;;;;0.00;0.00;;;;;13.59;39.72;68410.34;4968775;28;45516;-79
2023/03/27 19:55:42;;;;;;;;;0.00;0.00;;;;;13.71;39.92;68430.47;4972978;28;45541;-78
2023/03/27 19:58:07;;;;;;;;;0.00;0.00;;;;;13.66;40.06;68389.44;4977447;28;46183;-79
2023/03/27 20:00:34;;;;;;;;;0.00;0.00;;;;;13.86;39.86;68421.09;4961440;28;45256;-77
2023/03/27 20:03:00;;;;;;;;;0.00;0.00;;;;;13.85;39.93;68427.88;4976116;28;45589;-79
2023/03/27 20:05:26;;;;;;;;;0.33;0.33;;;;;13.81;39.80;68422.53;4967595;28;45715;-79
2023/03/27 20:07:51;;;;;;;;;0.00;0.00;;;;;13.58;39.92;68361.94;4971057;28;46824;-79
2023/03/27 20:10:17;;;;;;;;;0.00;0.00;;;;;13.59;39.93;68378.47;4971400;28;45468;-77
2023/03/27 20:12:42;;;;;;;;;0.00;0.00;;;;;13.65;39.75;68426.03;4970232;28;45528;-77
2023/03/27 20:15:13;;;;;;;;;0.00;0.00;;;;;13.73;39.98;68400.97;4972199;28;45627;-79
2023/03/27 20:17:38;;;;;;;;;0.00;0.00;;;;;13.80;39.79;68432.00;4967744;28;47354;-77
2023/03/27 20:20:10;;;;;;;;;0.00;0.00;;;;;13.79;40.00;68415.47;4972250;28;46963;-80
2023/03/27 20:22:36;;;;;;;;;1.00;1.00;;;;;13.52;39.81;68387.28;4974482;28;45386;-79
2023/03/27 20:25:02;;;;;;;;;0.67;0.67;;;;;13.76;40.08;68429.91;4973066;28;45566;-79
2023/03/27 20:27:27;;;;;;;;;0.00;0.00;;;;;13.59;40.09;68336.56;4971916;28;46214;-82
2023/03/27 20:29:52;;;;;;;;;1.00;0.33;;;;;13.55;40.02;68406.19;4973064;28;45351;-79
2023/03/27 20:32:17;;;;;;;;;1.67;0.00;;;;;13.70;39.99;68384.13;4969128;28;45506;-81
2023/03/27 20:34:47;;;;;;;;;0.00;0.00;;;;;13.69;39.99;68419.53;4970878;28;45634;-81
2023/03/27 20:37:13;;;;;;;;;0.00;0.00;;;;;13.62;40.41;68403.28;4972084;28;47108;-81
2023/03/27 20:39:45;;;;;;;;;0.00;0.00;;;;;13.64;40.29;68427.50;4972850;28;45476;-80
2023/03/27 20:42:16;;;;;;;;;0.00;0.00;;;;;13.65;40.35;68359.63;4972140;28;45557;-80
2023/03/27 20:44:43;;;;;;;;;0.67;0.67;;;;;13.51;40.39;68593.31;4969363;28;45339;-80
2023/03/27 20:47:13;;;;;;;;;0.00;0.00;;;;;13.62;40.39;68379.38;4970663;28;47263;-80
2023/03/27 20:49:46;;;;;;;;;0.00;0.00;;;;;13.34;40.37;68357.41;4973700;28;45492;-80
2023/03/27 20:52:14;;;;;;;;;1.00;1.00;;;;;13.58;40.38;68425.72;4974811;28;45366;-80
2023/03/27 20:54:40;;;;;;;;;0.33;0.33;;;;;13.57;40.41;68323.56;4975570;28;45412;-79
2023/03/27 20:57:06;;;;;;;;;0.00;0.00;;;;;13.59;40.50;68415.66;4975952;28;47450;-81
2023/03/27 20:59:31;;;;;;;;;0.33;0.33;;;;;13.36;40.47;68360.38;4968651;28;45839;-81
2023/03/27 21:01:57;;;;;;;;;0.00;0.00;;;;;13.54;40.58;68402.38;4974963;28;46125;-81